Time;durP1;ratioP1;P1;durP2;ratioP2;P2;SDS_P1;SDS_P2;PMS_P1;PMS_P2;Temp;Humidity;BMP_temperature;BMP_pressure;BME280_temperature;BME280_humidity;BME280_pressure;Samples;Min_cycle;Max_cycle;Signal;HPM_P1;HPM_P2
2022/12/30 00:02:19;;;;;;;8.93;5.43;;;;;;;-14.60;80.63;100649.91;4910150;28;20253;-83
2022/12/30 00:04:52;;;;;;;10.35;5.32;;;;;;;-14.15;81.03;100702.38;4887304;28;20046;-83
2022/12/30 00:07:23;;;;;;;13.18;5.10;;;;;;;-14.50;81.00;100587.25;4920523;28;20042;-83
2022/12/30 00:09:54;;;;;;;10.38;4.95;;;;;;;-13.74;80.04;100687.53;4913531;28;20298;-83
2022/12/30 00:35:02;;;;;;;10.38;4.35;;;;;;;-12.75;77.92;100679.97;4902972;28;20373;-84
2022/12/30 00:37:35;;;;;;;6.78;5.13;;;;;;;-12.82;78.81;100690.25;4921785;28;20065;-83
2022/12/30 00:40:07;;;;;;;7.95;4.82;;;;;;;-12.63;79.57;100688.50;4898053;28;20060;-84
2022/12/30 00:45:28;;;;;;;11.30;4.70;;;;;;;-12.35;80.75;100690.75;4906599;28;20047;-84
2022/12/30 00:56:19;;;;;;;8.70;4.13;;;;;;;-11.09;81.56;100695.56;4867751;28;20167;-84
2022/12/30 00:58:50;;;;;;;6.88;3.75;;;;;;;-10.94;80.32;100696.72;4875834;28;20611;-84
2022/12/30 01:01:22;;;;;;;9.82;4.60;;;;;;;-10.65;79.35;100690.47;4871414;28;20061;-81
2022/12/30 01:03:53;;;;;;;9.85;5.35;;;;;;;-10.52;78.46;100692.28;4873752;28;20064;-82
2022/12/30 01:06:24;;;;;;;10.70;5.10;;;;;;;-10.62;77.61;100650.31;4881943;28;20056;-81
2022/12/30 01:08:54;;;;;;;7.28;4.10;;;;;;;-10.23;76.81;100664.06;4868758;28;20294;-81
2022/12/30 01:11:25;;;;;;;10.35;4.93;;;;;;;-9.96;76.31;100676.91;4879834;28;20042;-82
2022/12/30 01:13:56;;;;;;;9.52;4.75;;;;;;;-9.94;75.81;100665.28;4865240;28;20145;-81
2022/12/30 01:16:31;;;;;;;7.68;4.47;;;;;;;-9.64;75.67;100657.31;4868319;28;20045;-81
2022/12/30 01:19:02;;;;;;;7.75;4.20;;;;;;;-9.36;75.12;100669.38;4865735;28;20410;-82
2022/12/30 01:21:32;;;;;;;9.00;4.95;;;;;;;-9.00;76.14;100667.63;4877179;28;20073;-82
2022/12/30 01:24:03;;;;;;;7.97;4.20;;;;;;;-9.03;74.71;100650.56;4865240;28;20038;-82
2022/12/30 01:26:34;;;;;;;8.13;4.75;;;;;;;-8.93;73.90;100669.78;4875410;28;20045;-83
2022/12/30 01:29:05;;;;;;;6.97;3.95;;;;;;;-8.78;74.06;100668.28;4914870;28;20058;-83
2022/12/30 01:31:37;;;;;;;7.30;4.13;;;;;;;-8.50;74.74;100662.53;4907029;28;20245;-83
2022/12/30 01:34:08;;;;;;;8.07;4.70;;;;;;;-8.12;75.44;100659.91;4912211;28;20037;-83
2022/12/30 01:36:40;;;;;;;7.65;4.82;;;;;;;-7.92;75.21;100633.28;4912910;28;20058;-84
2022/12/30 01:39:10;;;;;;;7.55;4.25;;;;;;;-7.50;74.75;100674.81;4921449;28;20200;-83
2022/12/30 01:41:41;;;;;;;8.05;4.47;;;;;;;-7.50;73.49;100636.75;4922888;28;20045;-83
2022/12/30 01:44:52;;;;;;;8.10;4.30;;;;;;;-6.97;73.60;100658.56;4908404;28;20054;-83
2022/12/30 01:47:30;;;;;;;7.22;4.63;;;;;;;-6.79;72.54;100648.59;4886028;28;20112;-83
2022/12/30 01:50:12;;;;;;;8.98;4.50;;;;;;;-6.52;72.72;100647.69;4913871;28;20053;-82
2022/12/30 01:52:48;;;;;;;12.20;6.30;;;;;;;-6.55;71.43;100642.41;4903334;28;20112;-82
2022/12/30 01:55:24;;;;;;;12.73;6.85;;;;;;;-6.81;70.19;100573.97;4918848;28;20071;-83
2022/12/30 01:57:57;;;;;;;17.45;8.10;;;;;;;-6.57;69.63;100595.69;4906454;28;20048;-83
2022/12/30 02:00:27;;;;;;;15.68;6.93;;;;;;;-6.12;69.56;100637.25;4920032;28;20048;-83
2022/12/30 02:03:00;;;;;;;13.40;6.63;;;;;;;-5.88;70.85;100631.75;4917242;28;20053;-83
2022/12/30 02:08:22;;;;;;;7.90;5.05;;;;;;;-5.54;69.54;100628.47;4898900;28;20038;-83
2022/12/30 02:10:56;;;;;;;10.93;5.78;;;;;;;-5.55;69.59;100601.28;4915702;28;20052;-83
2022/12/30 02:13:28;;;;;;;12.35;5.20;;;;;;;-5.15;68.13;100628.84;4909007;28;20082;-83
2022/12/30 02:16:17;;;;;;;10.88;5.25;;;;;;;-4.95;66.88;100622.25;4913832;28;20048;-84
2022/12/30 02:19:03;;;;;;;9.85;5.15;;;;;;;-4.72;66.97;100590.28;4902529;28;20103;-84
2022/12/30 02:22:05;;;;;;;11.40;5.03;;;;;;;-4.30;65.18;100616.16;4908162;28;20340;-85
2022/12/30 02:25:06;;;;;;;10.68;4.50;;;;;;;-3.86;64.83;100618.28;4896891;28;20115;-84
2022/12/30 02:28:09;;;;;;;12.30;4.93;;;;;;;-3.32;64.25;100610.53;4906458;28;20100;-83
2022/12/30 02:31:18;;;;;;;9.25;4.55;;;;;;;-3.25;61.41;100581.88;4914556;28;20374;-84
2022/12/30 02:33:56;;;;;;;10.80;5.05;;;;;;;-3.54;59.75;100516.75;4869006;28;20053;-84
2022/12/30 02:36:33;;;;;;;8.00;4.05;;;;;;;-3.13;58.66;100572.22;4903044;28;20048;-84
2022/12/30 02:39:08;;;;;;;10.07;4.03;;;;;;;-3.82;57.88;100478.88;4900627;28;20041;-84
2022/12/30 02:44:40;;;;;;;9.13;4.65;;;;;;;-3.14;57.26;100583.25;4902304;28;20053;-84
2022/12/30 02:47:18;;;;;;;8.43;3.78;;;;;;;-3.36;57.00;100595.88;4913614;28;20101;-83
2022/12/30 02:52:39;;;;;;;9.15;4.15;;;;;;;-3.20;58.29;100590.63;4906393;28;20317;-85
2022/12/30 02:55:11;;;;;;;9.75;4.38;;;;;;;-3.23;57.14;100603.28;4920724;28;20062;-84
2022/12/30 02:57:41;;;;;;;9.55;4.18;;;;;;;-3.23;57.16;100605.84;4917332;28;20054;-84
2022/12/30 03:06:38;;;;;;;8.00;4.38;;;;;;;-3.21;57.53;100583.78;4887059;28;20095;-86
2022/12/30 03:09:16;;;;;;;7.63;4.38;;;;;;;-3.33;56.37;100593.47;4907455;28;20037;-86
2022/12/30 03:11:57;;;;;;;7.65;3.78;;;;;;;-3.58;57.21;100587.25;4909373;28;20335;-86
2022/12/30 03:14:33;;;;;;;9.00;4.07;;;;;;;-4.02;55.80;100592.81;4909697;28;20063;-86
2022/12/30 03:17:11;;;;;;;5.22;2.90;;;;;;;-4.31;55.63;100609.31;4912723;28;20110;-86
2022/12/30 03:19:45;;;;;;;6.90;3.63;;;;;;;-4.83;56.52;100597.38;4914182;28;20049;-86
2022/12/30 03:28:03;;;;;;;7.45;3.60;;;;;;;-5.81;61.10;100603.31;4915217;28;20036;-86
2022/12/30 03:30:37;;;;;;;9.73;3.38;;;;;;;-6.10;61.66;100572.06;4914946;28;20051;-86
2022/12/30 03:33:08;;;;;;;6.68;3.40;;;;;;;-5.93;61.75;100610.25;4912711;28;20048;-85
2022/12/30 03:35:48;;;;;;;8.27;3.33;;;;;;;-6.10;62.59;100569.53;4926952;28;20044;-86
2022/12/30 03:38:20;;;;;;;7.45;3.95;;;;;;;-5.78;62.47;100612.78;4916021;28;20047;-86
2022/12/30 03:40:54;;;;;;;10.38;4.60;;;;;;;-5.93;61.51;100582.28;4919529;28;20084;-85
2022/12/30 03:43:26;;;;;;;8.23;3.53;;;;;;;-5.74;61.34;100592.66;4924841;28;20048;-86
2022/12/30 03:45:56;;;;;;;6.95;3.33;;;;;;;-6.10;60.67;100549.16;4918860;28;20048;-86
2022/12/30 03:48:27;;;;;;;7.78;4.50;;;;;;;-6.12;61.76;100573.66;4918649;28;20045;-86
2022/12/30 03:50:59;;;;;;;8.25;3.25;;;;;;;-6.26;61.02;100587.28;4925991;28;20047;-85
2022/12/30 03:56:17;;;;;;;6.68;3.40;;;;;;;-6.72;61.45;100569.41;4906602;28;20067;-86
2022/12/30 03:58:48;;;;;;;5.40;3.45;;;;;;;-6.58;62.13;100593.97;4911988;28;20103;-85
2022/12/30 04:01:18;;;;;;;7.82;3.92;;;;;;;-6.83;62.19;100571.34;4918439;28;20045;-86
2022/12/30 04:03:49;;;;;;;9.77;3.83;;;;;;;-6.66;62.21;100592.66;4912039;28;20304;-85
2022/12/30 04:06:21;;;;;;;7.13;3.67;;;;;;;-6.63;63.19;100580.09;4896561;28;20087;-82
2022/12/30 04:08:52;;;;;;;7.82;3.60;;;;;;;-6.42;63.63;100569.41;4909428;28;20060;-86
2022/12/30 04:11:22;;;;;;;5.90;3.33;;;;;;;-5.95;63.51;100589.84;4909855;28;20049;-86
2022/12/30 04:13:53;;;;;;;8.07;3.55;;;;;;;-5.90;62.31;100590.94;4906863;28;20041;-86
2022/12/30 04:16:24;;;;;;;6.95;3.40;;;;;;;-5.75;61.71;100583.25;4916250;28;20320;-87
2022/12/30 04:18:54;;;;;;;7.05;3.65;;;;;;;-5.57;60.61;100587.59;4917129;28;20221;-87
2022/12/30 04:21:29;;;;;;;7.35;3.17;;;;;;;-5.71;60.79;100575.00;4914353;28;20051;-87
2022/12/30 04:26:47;;;;;;;6.65;3.08;;;;;;;-5.59;60.13;100596.81;4896796;28;20332;-86
2022/12/30 04:29:18;;;;;;;7.80;3.75;;;;;;;-5.53;60.13;100589.50;4916230;28;20040;-86
2022/12/30 04:31:48;;;;;;;5.93;2.97;;;;;;;-5.43;60.22;100591.75;4915212;28;20375;-87
2022/12/30 04:34:19;;;;;;;5.32;3.38;;;;;;;-5.58;59.81;100590.94;4927012;28;20050;-87
2022/12/30 04:39:39;;;;;;;6.03;3.30;;;;;;;-5.87;60.81;100559.69;4912865;28;20107;-87
2022/12/30 04:42:13;;;;;;;5.25;3.22;;;;;;;-5.92;61.23;100533.13;4914589;28;20123;-86
2022/12/30 04:44:44;;;;;;;7.95;3.83;;;;;;;-5.53;61.54;100594.59;4921373;28;20059;-85
2022/12/30 04:50:01;;;;;;;5.95;3.55;;;;;;;-5.69;62.57;100578.53;4910033;28;20064;-87
2022/12/30 04:52:34;;;;;;;6.60;3.80;;;;;;;-5.78;63.47;100603.47;4906266;28;20388;-86
2022/12/30 04:55:08;;;;;;;7.20;3.60;;;;;;;-6.11;64.10;100575.41;4920228;28;20108;-88
2022/12/30 04:57:39;;;;;;;5.55;3.35;;;;;;;-6.28;64.78;100583.78;4913589;28;20041;-87
2022/12/30 05:00:11;;;;;;;5.57;3.10;;;;;;;-6.28;65.45;100604.13;4913794;28;20265;-86
2022/12/30 05:02:42;;;;;;;9.15;3.80;;;;;;;-6.36;65.63;100611.31;4905446;28;20049;-86
2022/12/30 05:05:12;;;;;;;10.27;4.82;;;;;;;-6.58;65.67;100614.28;4914605;28;20048;-86
2022/12/30 05:07:45;;;;;;;5.45;3.25;;;;;;;-6.88;66.57;100602.34;4923084;28;20057;-87
2022/12/30 05:10:18;;;;;;;9.68;3.88;;;;;;;-6.84;66.44;100625.50;4919981;28;20160;-88
2022/12/30 05:12:57;;;;;;;6.57;3.70;;;;;;;-7.26;65.68;100573.00;4909765;28;20102;-87
2022/12/30 05:15:31;;;;;;;7.50;3.95;;;;;;;-7.05;65.41;100614.91;4902828;28;20051;-88
2022/12/30 05:18:01;;;;;;;6.95;3.63;;;;;;;-7.05;65.23;100625.09;4914825;28;20294;-86
2022/12/30 05:20:37;;;;;;;6.55;3.50;;;;;;;-7.04;65.70;100625.94;4917843;28;20059;-88
2022/12/30 05:26:13;;;;;;;8.43;3.45;;;;;;;-7.16;65.65;100631.19;4896410;28;20059;-89
2022/12/30 05:26:16;;;;;;;7.00;3.38;;;;;;;-7.21;66.89;100622.44;4883400;28;20243;-86
2022/12/30 05:28:49;;;;;;;6.13;3.60;;;;;;;-7.20;67.84;100616.56;4910071;28;20048;-88
2022/12/30 05:31:20;;;;;;;7.80;4.68;;;;;;;-7.27;68.04;100594.09;4927016;28;20107;-88
2022/12/30 05:33:52;;;;;;;8.13;4.03;;;;;;;-7.27;68.33;100606.81;4915151;28;20052;-88
2022/12/30 05:36:23;;;;;;;6.10;3.28;;;;;;;-7.09;68.40;100623.13;4911828;28;20047;-87
2022/12/30 05:38:56;;;;;;;7.55;3.55;;;;;;;-7.10;68.59;100635.75;4921848;28;20058;-87
2022/12/30 05:41:26;;;;;;;7.32;3.55;;;;;;;-7.48;68.60;100592.03;4920553;28;20044;-87
2022/12/30 05:43:59;;;;;;;7.68;3.83;;;;;;;-7.14;68.28;100634.69;4919254;28;20047;-87
2022/12/30 05:46:32;;;;;;;8.18;3.60;;;;;;;-7.17;68.09;100629.44;4917088;28;20049;-87
2022/12/30 05:49:05;;;;;;;8.13;4.00;;;;;;;-7.08;68.33;100637.59;4900882;28;20056;-87
2022/12/30 05:51:36;;;;;;;9.15;3.60;;;;;;;-7.04;68.21;100652.25;4917227;28;20115;-88
2022/12/30 05:54:08;;;;;;;5.63;3.67;;;;;;;-7.23;67.86;100634.16;4921272;28;20053;-88
2022/12/30 05:56:38;;;;;;;8.50;4.05;;;;;;;-7.09;68.61;100646.00;4923356;28;20037;-88
2022/12/30 05:59:15;;;;;;;6.82;3.80;;;;;;;-7.17;68.96;100624.34;4912257;28;20334;-89
2022/12/30 06:01:45;;;;;;;7.28;3.95;;;;;;;-7.09;69.14;100655.28;4915426;28;20066;-84
2022/12/30 06:04:21;;;;;;;7.22;3.95;;;;;;;-7.24;68.55;100645.97;4921111;28;20293;-87
2022/12/30 06:06:51;;;;;;;7.47;4.20;;;;;;;-7.38;68.82;100657.81;4919471;28;20195;-81
2022/12/30 06:09:26;;;;;;;7.15;4.03;;;;;;;-7.56;68.26;100641.47;4901640;28;20056;-85
2022/12/30 06:12:03;;;;;;;6.45;3.70;;;;;;;-7.49;67.74;100661.31;4919534;28;20056;-84
2022/12/30 06:14:33;;;;;;;7.28;3.67;;;;;;;-7.63;67.54;100654.53;4910876;28;20048;-84
2022/12/30 06:17:04;;;;;;;6.25;3.40;;;;;;;-7.53;66.77;100669.56;4916931;28;20257;-84
2022/12/30 06:22:29;;;;;;;5.97;3.10;;;;;;;-7.74;66.01;100665.66;4908447;28;20053;-83
2022/12/30 06:27:53;;;;;;;8.00;3.63;;;;;;;-7.86;65.77;100674.28;4906650;28;20245;-85
2022/12/30 06:30:26;;;;;;;7.53;3.40;;;;;;;-7.92;66.06;100678.94;4923287;28;20349;-84
2022/12/30 06:33:03;;;;;;;6.50;3.10;;;;;;;-8.12;65.96;100664.09;4914726;28;20049;-83
2022/12/30 06:38:21;;;;;;;11.45;3.80;;;;;;;-8.32;65.61;100696.63;4896812;28;20058;-84
2022/12/30 06:41:12;;;;;;;5.10;3.42;;;;;;;-8.61;65.56;100655.84;4916247;28;20048;-83
2022/12/30 06:43:42;;;;;;;6.28;3.28;;;;;;;-8.55;65.49;100694.28;4887899;28;20059;-82
2022/12/30 06:46:13;;;;;;;7.68;3.70;;;;;;;-8.62;65.93;100697.19;4914341;28;20276;-83
2022/12/30 06:48:45;;;;;;;8.70;3.55;;;;;;;-8.64;65.83;100691.13;4911959;28;20363;-81
2022/12/30 06:51:15;;;;;;;10.73;4.03;;;;;;;-8.78;65.72;100693.63;4924326;28;20040;-83
2022/12/30 06:53:49;;;;;;;7.47;3.55;;;;;;;-9.04;65.53;100679.16;4913195;28;20297;-82
2022/12/30 06:56:21;;;;;;;8.65;3.60;;;;;;;-9.05;65.75;100706.94;4912882;28;20049;-83
2022/12/30 06:58:54;;;;;;;6.47;3.58;;;;;;;-9.10;66.11;100703.22;4908245;28;20067;-84
2022/12/30 07:01:25;;;;;;;6.57;3.47;;;;;;;-9.16;66.29;100709.63;4916083;28;20052;-84
2022/12/30 07:03:56;;;;;;;11.68;4.38;;;;;;;-9.37;65.94;100687.84;4919655;28;20055;-83
2022/12/30 07:06:30;;;;;;;18.00;6.07;;;;;;;-9.43;65.85;100708.56;4912295;28;20341;-81
2022/12/30 07:09:01;;;;;;;13.90;6.38;;;;;;;-9.84;65.03;100710.66;4919945;28;20057;-80
2022/12/30 07:11:34;;;;;;;18.38;6.93;;;;;;;-10.27;64.90;100710.09;4917852;28;20049;-81
2022/12/30 07:14:07;;;;;;;15.00;6.65;;;;;;;-10.48;65.96;100699.31;4921336;28;20416;-81
2022/12/30 07:23:58;;;;;;;10.63;5.55;;;;;;;-11.17;68.84;100701.69;4690720;29;20061;-82
2022/12/30 07:26:30;;;;;;;10.57;5.32;;;;;;;-11.38;68.75;100721.97;4789892;29;20079;-80
2022/12/30 07:29:03;;;;;;;18.63;8.45;;;;;;;-11.66;69.21;100718.91;4783865;29;20053;-81
2022/12/30 07:31:36;;;;;;;7.97;4.50;;;;;;;-12.02;69.74;100711.88;4778794;29;20048;-80
2022/12/30 07:34:10;;;;;;;8.38;4.65;;;;;;;-12.41;70.58;100720.47;4789003;29;20750;-82
2022/12/30 07:36:41;;;;;;;7.40;4.13;;;;;;;-12.68;71.37;100714.94;4783747;29;20052;-82
2022/12/30 07:39:12;;;;;;;6.85;3.95;;;;;;;-12.97;72.78;100719.19;4789601;29;20092;-82
2022/12/30 07:41:45;;;;;;;10.88;4.60;;;;;;;-13.18;74.75;100711.56;4782717;29;20071;-80
2022/12/30 07:44:19;;;;;;;7.13;3.90;;;;;;;-13.10;76.04;100733.22;4842631;28;20044;-81
2022/12/30 07:46:50;;;;;;;6.57;4.00;;;;;;;-13.24;76.88;100723.63;4918106;28;20063;-81
2022/12/30 07:49:21;;;;;;;8.23;3.95;;;;;;;-13.21;77.12;100730.56;4911751;28;20106;-81
2022/12/30 07:51:52;;;;;;;4.82;3.58;;;;;;;-13.22;77.93;100747.28;4911254;28;20120;-80
2022/12/30 07:54:35;;;;;;;6.38;3.95;;;;;;;-13.39;78.30;100707.28;4885853;28;20055;-80
2022/12/30 07:57:05;;;;;;;4.90;3.63;;;;;;;-13.36;78.40;100722.63;4918430;28;20090;-79
2022/12/30 07:59:38;;;;;;;6.90;3.75;;;;;;;-13.27;78.55;100743.53;4922924;28;20056;-81
2022/12/30 08:02:11;;;;;;;7.35;3.70;;;;;;;-13.36;79.09;100760.31;4919349;28;20040;-80
2022/12/30 08:08:05;;;;;;;6.78;3.20;;;;;;;-13.68;80.19;100743.34;4879988;28;20045;-83
2022/12/30 08:10:43;;;;;;;5.25;2.92;;;;;;;-13.80;80.13;100740.66;4923886;28;20056;-83
2022/12/30 08:13:13;;;;;;;4.38;3.15;;;;;;;-13.72;80.41;100752.25;4917347;28;20037;-81
2022/12/30 08:15:46;;;;;;;5.47;3.08;;;;;;;-13.76;80.39;100754.34;4922815;28;20068;-82
2022/12/30 08:18:19;;;;;;;7.18;3.30;;;;;;;-13.81;80.35;100761.47;4927961;28;20041;-82
2022/12/30 08:21:07;;;;;;;6.82;3.42;;;;;;;-13.84;81.08;100770.41;4919999;28;20048;-83
2022/12/30 08:23:37;;;;;;;6.35;3.70;;;;;;;-14.12;81.43;100722.75;4896859;28;20356;-84
2022/12/30 08:26:15;;;;;;;7.97;3.70;;;;;;;-14.14;81.51;100739.31;4916931;28;20053;-83
2022/12/30 08:28:48;;;;;;;8.55;4.20;;;;;;;-13.98;82.29;100756.59;4909954;28;20041;-83
2022/12/30 08:31:25;;;;;;;8.13;4.40;;;;;;;-14.13;82.05;100759.50;4915306;28;20045;-83
2022/12/30 08:34:23;;;;;;;10.27;5.18;;;;;;;-14.09;82.26;100742.22;4908325;28;20344;-82
2022/12/30 08:37:06;;;;;;;10.38;4.75;;;;;;;-14.13;81.92;100761.16;4903380;28;20044;-84
2022/12/30 08:39:38;;;;;;;7.75;4.05;;;;;;;-14.14;82.09;100769.44;4916957;28;20053;-83
2022/12/30 08:42:09;;;;;;;7.05;3.70;;;;;;;-13.91;83.00;100774.00;4918214;28;20041;-84
2022/12/30 08:44:40;;;;;;;6.50;3.60;;;;;;;-13.68;83.44;100781.03;4919165;28;20066;-83
2022/12/30 08:47:24;;;;;;;7.53;3.60;;;;;;;-13.51;83.49;100788.41;4913389;28;20246;-82
2022/12/30 08:49:55;;;;;;;6.68;3.72;;;;;;;-13.50;82.82;100780.13;4902754;28;20473;-82
2022/12/30 08:52:29;;;;;;;6.10;3.80;;;;;;;-13.56;82.55;100782.09;4909083;28;20108;-82
2022/12/30 08:55:02;;;;;;;9.45;5.18;;;;;;;-13.61;82.03;100780.81;4902345;28;20044;-82
2022/12/30 08:57:33;;;;;;;19.50;7.13;;;;;;;-13.74;82.03;100783.00;4914137;28;20058;-82
2022/12/30 09:00:06;;;;;;;23.73;8.95;;;;;;;-14.12;82.24;100743.72;4908195;28;20041;-82
2022/12/30 09:02:44;;;;;;;21.73;7.22;;;;;;;-14.03;82.83;100742.75;4915545;28;20345;-81
2022/12/30 09:05:18;;;;;;;21.35;10.88;;;;;;;-13.79;82.39;100790.16;4900991;28;20075;-82
2022/12/30 09:07:49;;;;;;;17.40;11.10;;;;;;;-13.86;82.41;100781.94;4912667;28;20045;-83
2022/12/30 09:10:28;;;;;;;17.58;7.60;;;;;;;-14.13;82.09;100741.06;4898839;28;20362;-81
2022/12/30 09:13:05;;;;;;;21.70;8.27;;;;;;;-14.02;81.85;100785.59;4915101;28;20215;-85
2022/12/30 09:15:40;;;;;;;21.13;9.07;;;;;;;-14.15;82.18;100765.16;4925386;28;20047;-83
2022/12/30 09:18:18;;;;;;;34.83;14.38;;;;;;;-14.10;83.09;100781.53;4899315;28;20045;-83
2022/12/30 09:20:49;;;;;;;87.82;22.67;;;;;;;-14.24;82.95;100776.91;4900946;28;20052;-82
2022/12/30 09:23:23;;;;;;;114.20;30.55;;;;;;;-14.27;83.02;100766.59;4912800;28;20263;-83
2022/12/30 09:25:53;;;;;;;95.70;26.45;;;;;;;-14.15;83.47;100787.75;4903301;28;20113;-85
2022/12/30 09:28:24;;;;;;;47.85;14.07;;;;;;;-14.13;83.25;100781.22;4913076;28;20059;-81
2022/12/30 09:31:00;;;;;;;60.83;20.42;;;;;;;-14.09;84.14;100763.19;4911950;28;20048;-80
2022/12/30 09:33:35;;;;;;;106.22;27.23;;;;;;;-13.91;84.14;100794.94;4911063;28;20126;-83
2022/12/30 09:36:09;;;;;;;192.30;54.75;;;;;;;-13.96;83.61;100796.19;4912928;28;20379;-80
2022/12/30 09:38:40;;;;;;;112.47;34.70;;;;;;;-13.97;83.54;100799.44;4914925;28;20058;-81
2022/12/30 09:41:18;;;;;;;239.88;64.00;;;;;;;-14.86;83.34;100650.97;4908990;28;20050;-81
2022/12/30 09:43:56;;;;;;;190.10;56.83;;;;;;;-14.42;83.97;100716.78;4902066;28;20375;-80
2022/12/30 09:46:42;;;;;;;71.10;26.48;;;;;;;-14.13;83.99;100761.16;4907237;28;20409;-77
2022/12/30 09:49:25;;;;;;;29.33;13.43;;;;;;;-14.03;83.07;100808.94;4884380;28;20082;-78
2022/12/30 09:52:04;;;;;;;19.92;10.93;;;;;;;-14.30;82.98;100783.84;4895311;28;20040;-77
2022/12/30 09:54:38;;;;;;;15.65;8.10;;;;;;;-14.48;83.48;100756.34;4904962;28;20066;-77
2022/12/30 09:57:32;;;;;;;13.60;7.35;;;;;;;-14.68;84.17;100726.13;4891283;28;20049;-78
2022/12/30 10:00:08;;;;;;;16.83;7.57;;;;;;;-14.06;84.79;100810.28;4890135;28;20056;-78
2022/12/30 10:03:04;;;;;;;108.90;28.33;;;;;;;-14.35;84.67;100759.25;4909165;28;20044;-77
2022/12/30 10:06:12;;;;;;;61.80;19.83;;;;;;;-14.40;84.17;100750.44;4882521;28;20040;-78
2022/12/30 10:09:16;;;;;;;208.63;54.85;;;;;;;-14.17;84.50;100789.25;4883070;28;20190;-78
2022/12/30 10:12:08;;;;;;;86.13;26.75;;;;;;;-14.17;83.79;100804.31;4899592;28;20120;-77
2022/12/30 10:14:50;;;;;;;30.40;11.27;;;;;;;-14.32;83.84;100780.31;4890953;28;20052;-77
2022/12/30 10:17:38;;;;;;;12.30;5.80;;;;;;;-14.24;83.95;100784.44;4910113;28;20053;-79
2022/12/30 10:20:20;;;;;;;20.90;7.75;;;;;;;-14.18;84.14;100777.44;4896845;28;20049;-78
2022/12/30 10:23:01;;;;;;;23.38;10.77;;;;;;;-14.04;84.26;100797.13;4893929;28;20288;-77
2022/12/30 10:25:45;;;;;;;23.73;11.35;;;;;;;-13.89;84.82;100781.66;4903432;28;20043;-78
2022/12/30 10:28:30;;;;;;;9.40;5.63;;;;;;;-13.66;85.49;100791.22;4902440;28;20048;-78
2022/12/30 10:31:20;;;;;;;61.72;23.25;;;;;;;-13.57;85.62;100741.78;4898119;28;20424;-78
2022/12/30 10:34:03;;;;;;;13.48;7.65;;;;;;;-13.79;83.27;100744.03;4911420;28;20044;-78
2022/12/30 10:36:45;;;;;;;8.90;5.78;;;;;;;-13.80;83.32;100787.47;4904138;28;20070;-78
2022/12/30 10:39:23;;;;;;;7.97;4.13;;;;;;;-14.35;84.41;100734.16;4906420;28;20345;-80
2022/12/30 10:42:22;;;;;;;18.38;7.22;;;;;;;-13.81;84.69;100785.72;4894735;28;20040;-80
2022/12/30 10:45:08;;;;;;;10.30;5.72;;;;;;;-13.87;84.17;100790.22;4903692;28;20052;-80
2022/12/30 10:47:55;;;;;;;8.25;5.47;;;;;;;-13.92;84.06;100790.69;4894353;28;20057;-80
2022/12/30 10:50:37;;;;;;;6.25;4.53;;;;;;;-14.11;84.32;100734.56;4886326;28;20048;-79
2022/12/30 10:53:19;;;;;;;25.23;9.38;;;;;;;-13.78;84.54;100765.91;4896826;28;20216;-79
2022/12/30 10:55:55;;;;;;;27.63;11.25;;;;;;;-14.25;84.38;100677.22;4890422;28;20053;-85
2022/12/30 10:58:33;;;;;;;7.88;4.20;;;;;;;-13.76;84.17;100770.31;4892366;28;20083;-85
2022/12/30 11:01:11;;;;;;;4.55;3.33;;;;;;;-13.89;83.90;100744.88;4889406;28;20094;-83
2022/12/30 11:03:46;;;;;;;6.03;3.30;;;;;;;-13.78;84.25;100775.94;4897944;28;20362;-84
2022/12/30 11:06:40;;;;;;;4.78;3.30;;;;;;;-13.71;84.37;100780.75;4893070;28;20306;-86
2022/12/30 11:09:25;;;;;;;5.40;3.70;;;;;;;-13.67;84.85;100769.38;4877704;28;20061;-84
2022/12/30 11:15:25;;;;;;;22.63;8.25;;;;;;;-13.62;84.11;100764.00;4898463;28;20301;-85
2022/12/30 11:17:59;;;;;;;56.85;16.20;;;;;;;-13.78;83.23;100765.91;4904040;28;20044;-85
2022/12/30 11:20:36;;;;;;;87.18;24.33;;;;;;;-13.95;83.40;100785.41;4896720;28;20052;-85
2022/12/30 11:23:35;;;;;;;37.88;14.20;;;;;;;-14.55;83.54;100683.81;4901213;28;20048;-85
2022/12/30 11:26:18;;;;;;;31.40;9.65;;;;;;;-14.28;84.16;100734.69;4905372;28;20040;-88
2022/12/30 11:28:57;;;;;;;41.80;13.07;;;;;;;-14.69;83.88;100669.19;4888933;28;20142;-85
2022/12/30 11:31:47;;;;;;;;;;;;;;;;;;;;;
2022/12/30 11:34:30;;;;;;;62.30;21.65;;;;;;;-14.14;84.02;100785.38;4884913;28;20176;-87
2022/12/30 11:37:36;;;;;;;29.52;12.98;;;;;;;-14.16;84.22;100760.88;4872219;28;20097;-85
2022/12/30 11:40:33;;;;;;;11.93;6.05;;;;;;;-13.85;85.18;100763.59;4888316;28;20284;-86
2022/12/30 11:43:15;;;;;;;13.20;8.98;;;;;;;-13.75;85.08;100751.09;4897284;28;20041;-85
2022/12/30 11:45:59;;;;;;;16.45;6.90;;;;;;;-13.65;84.50;100757.78;4899664;28;20053;-86
2022/12/30 11:48:36;;;;;;;8.30;5.50;;;;;;;-13.99;83.49;100740.66;4898437;28;20278;-86
2022/12/30 11:51:18;;;;;;;6.90;4.15;;;;;;;-14.07;82.64;100766.72;4889691;28;20037;-87
2022/12/30 11:54:02;;;;;;;6.90;4.65;;;;;;;-14.34;83.04;100755.97;4896857;28;20116;-87
2022/12/30 11:56:33;;;;;;;11.02;7.28;;;;;;;-14.15;83.45;100782.72;4895726;28;20091;-84
2022/12/30 11:59:11;;;;;;;25.25;15.13;;;;;;;-14.22;83.67;100765.38;4925779;28;20040;-84
2022/12/30 12:01:49;;;;;;;10.10;6.22;;;;;;;-14.17;84.07;100780.09;4906435;28;20060;-84
2022/12/30 12:04:38;;;;;;;7.82;4.90;;;;;;;-14.27;83.77;100761.56;4913839;28;20311;-84
2022/12/30 12:07:24;;;;;;;12.13;6.15;;;;;;;-13.79;84.74;100784.25;4913154;28;20051;-84
2022/12/30 12:10:04;;;;;;;28.55;10.48;;;;;;;-13.44;85.01;100778.91;4903249;28;20203;-82
2022/12/30 12:12:40;;;;;;;20.52;8.40;;;;;;;-13.40;83.76;100811.09;4908530;28;20064;-82
2022/12/30 12:15:32;;;;;;;21.45;9.30;;;;;;;-13.48;82.61;100800.34;4920326;28;20046;-82
2022/12/30 12:18:15;;;;;;;12.65;6.18;;;;;;;-13.55;82.52;100756.25;4899225;28;20053;-82
2022/12/30 12:21:03;;;;;;;16.50;5.97;;;;;;;-14.16;81.09;100675.50;4902361;28;20052;-84
2022/12/30 12:23:47;;;;;;;18.77;7.82;;;;;;;-13.69;80.46;100764.19;4912883;28;20091;-82
2022/12/30 12:26:21;;;;;;;29.33;11.63;;;;;;;-13.78;80.01;100740.78;4915430;28;20041;-83
2022/12/30 12:28:54;;;;;;;24.80;10.95;;;;;;;-13.66;80.40;100736.81;4909553;28;21203;-83
2022/12/30 12:31:43;;;;;;;42.30;16.70;;;;;;;-13.05;80.39;100799.91;4913665;28;20052;-84
2022/12/30 12:34:39;;;;;;;30.92;12.98;;;;;;;-13.32;79.99;100759.84;4897791;28;20253;-82
2022/12/30 12:37:31;;;;;;;18.35;7.57;;;;;;;-12.98;80.21;100797.91;4896962;28;20055;-83
2022/12/30 12:40:36;;;;;;;19.80;9.60;;;;;;;-12.75;80.20;100814.94;4902190;28;20044;-83
2022/12/30 12:43:18;;;;;;;26.88;10.07;;;;;;;-13.33;79.92;100697.72;4900281;28;20108;-83
2022/12/30 12:46:12;;;;;;;37.65;13.30;;;;;;;-12.75;79.58;100790.69;4900381;28;20104;-83
2022/12/30 12:49:09;;;;;;;43.90;14.70;;;;;;;-12.79;80.11;100786.13;4890088;28;20067;-83
2022/12/30 12:51:53;;;;;;;53.83;20.60;;;;;;;-13.02;80.12;100745.59;4899751;28;20060;-84
2022/12/30 12:55:15;;;;;;;105.75;37.38;;;;;;;-12.84;80.67;100779.84;4899637;28;20052;-85
2022/12/30 12:57:57;;;;;;;45.58;21.02;;;;;;;-12.83;81.46;100774.94;4834671;28;20045;-83
2022/12/30 13:00:36;;;;;;;17.48;12.30;;;;;;;-12.97;81.48;100751.88;4900045;28;20047;-83
2022/12/30 13:03:33;;;;;;;7.50;5.05;;;;;;;-12.90;82.24;100771.75;4900281;28;20066;-83
2022/12/30 13:06:19;;;;;;;10.25;4.80;;;;;;;-12.86;82.64;100763.72;4889100;28;20037;-83
2022/12/30 13:09:29;;;;;;;13.43;6.40;;;;;;;-12.56;82.81;100784.66;4897896;28;20060;-83
2022/12/30 13:12:14;;;;;;;8.60;4.80;;;;;;;-12.94;82.84;100704.34;4905933;28;20056;-83
2022/12/30 13:14:52;;;;;;;7.60;4.25;;;;;;;-12.62;82.54;100758.22;4899898;28;20241;-83
2022/12/30 13:17:31;;;;;;;10.57;5.60;;;;;;;-12.69;82.64;100758.47;4899773;28;20385;-84
2022/12/30 13:20:20;;;;;;;6.20;4.32;;;;;;;-12.50;82.58;100747.41;4899755;28;20127;-83
2022/12/30 13:22:55;;;;;;;6.60;3.97;;;;;;;-12.34;82.63;100769.72;4904812;28;20088;-83
2022/12/30 13:25:32;;;;;;;13.68;5.82;;;;;;;-12.32;82.84;100768.19;4909403;28;20052;-84
2022/12/30 13:28:06;;;;;;;12.70;5.93;;;;;;;-12.15;82.72;100765.44;4899527;28;20352;-81
2022/12/30 13:30:47;;;;;;;17.95;7.93;;;;;;;-12.08;81.76;100771.81;4909485;28;20051;-83
2022/12/30 13:33:28;;;;;;;16.52;7.93;;;;;;;-12.48;80.24;100758.47;4899694;28;20056;-85